sensor_id;sensor_type;location;lat;lon;timestamp;pressure;altitude;pressure_sealevel;temperature;humidity
24336;BME280;33098;52.400;16.880;2023-02-28T00:01:31;102315.27;;;0.58;66.36
24336;BME280;33098;52.400;16.880;2023-02-28T00:03:58;102316.88;;;0.54;66.60
24336;BME280;33098;52.400;16.880;2023-02-28T00:06:25;102319.17;;;0.51;66.41
24336;BME280;33098;52.400;16.880;2023-02-28T00:08:52;102321.63;;;0.48;66.61
24336;BME280;33098;52.400;16.880;2023-02-28T00:11:18;102319.55;;;0.45;66.59
24336;BME280;33098;52.400;16.880;2023-02-28T00:13:46;102319.35;;;0.48;66.74
24336;BME280;33098;52.400;16.880;2023-02-28T00:16:15;102319.33;;;0.52;66.83
24336;BME280;33098;52.400;16.880;2023-02-28T00:18:42;102317.20;;;0.58;67.21
24336;BME280;33098;52.400;16.880;2023-02-28T00:21:09;102315.99;;;0.55;67.18
24336;BME280;33098;52.400;16.880;2023-02-28T00:23:36;102315.15;;;0.49;67.09
24336;BME280;33098;52.400;16.880;2023-02-28T00:26:03;102315.55;;;0.40;66.97
24336;BME280;33098;52.400;16.880;2023-02-28T00:28:30;102318.02;;;0.38;67.18
24336;BME280;33098;52.400;16.880;2023-02-28T00:30:59;102320.61;;;0.44;67.45
24336;BME280;33098;52.400;16.880;2023-02-28T00:33:27;102317.80;;;0.47;67.40
24336;BME280;33098;52.400;16.880;2023-02-28T00:36:05;102321.83;;;0.44;67.38
24336;BME280;33098;52.400;16.880;2023-02-28T00:38:33;102318.53;;;0.42;67.42
24336;BME280;33098;52.400;16.880;2023-02-28T00:41:01;102321.88;;;0.36;67.36
24336;BME280;33098;52.400;16.880;2023-02-28T00:43:35;102327.88;;;0.25;67.39
24336;BME280;33098;52.400;16.880;2023-02-28T00:46:03;102321.46;;;0.16;67.54
24336;BME280;33098;52.400;16.880;2023-02-28T00:48:30;102315.86;;;0.19;67.75
24336;BME280;33098;52.400;16.880;2023-02-28T00:50:57;102324.39;;;0.23;67.83
24336;BME280;33098;52.400;16.880;2023-02-28T00:53:25;102321.43;;;0.23;68.04
24336;BME280;33098;52.400;16.880;2023-02-28T00:55:52;102324.23;;;0.22;68.02
24336;BME280;33098;52.400;16.880;2023-02-28T00:58:18;102331.20;;;0.23;68.35
24336;BME280;33098;52.400;16.880;2023-02-28T01:00:45;102325.98;;;0.22;68.24
24336;BME280;33098;52.400;16.880;2023-02-28T01:03:17;102321.98;;;0.16;68.05
24336;BME280;33098;52.400;16.880;2023-02-28T01:05:44;102323.23;;;0.11;68.31
24336;BME280;33098;52.400;16.880;2023-02-28T01:08:12;102325.35;;;0.06;68.42
24336;BME280;33098;52.400;16.880;2023-02-28T01:10:40;102326.44;;;-0.01;68.45
24336;BME280;33098;52.400;16.880;2023-02-28T01:13:07;102328.06;;;-0.15;68.41
24336;BME280;33098;52.400;16.880;2023-02-28T01:15:42;102326.36;;;-0.26;68.65
24336;BME280;33098;52.400;16.880;2023-02-28T01:18:09;102322.54;;;-0.36;68.77
24336;BME280;33098;52.400;16.880;2023-02-28T01:20:37;102319.58;;;-0.35;68.91
24336;BME280;33098;52.400;16.880;2023-02-28T01:23:04;102320.96;;;-0.33;69.07
24336;BME280;33098;52.400;16.880;2023-02-28T01:25:30;102316.23;;;-0.27;69.37
24336;BME280;33098;52.400;16.880;2023-02-28T01:27:57;102317.98;;;-0.28;69.19
24336;BME280;33098;52.400;16.880;2023-02-28T01:30:23;102317.15;;;-0.39;69.29
24336;BME280;33098;52.400;16.880;2023-02-28T01:32:50;102316.45;;;-0.39;69.46
24336;BME280;33098;52.400;16.880;2023-02-28T01:35:18;102314.20;;;-0.46;69.62
24336;BME280;33098;52.400;16.880;2023-02-28T01:37:45;102315.06;;;-0.46;69.68
24336;BME280;33098;52.400;16.880;2023-02-28T01:40:12;102316.99;;;-0.51;69.54
24336;BME280;33098;52.400;16.880;2023-02-28T01:42:39;102320.34;;;-0.55;69.63
24336;BME280;33098;52.400;16.880;2023-02-28T01:47:44;102315.25;;;-0.53;70.05
24336;BME280;33098;52.400;16.880;2023-02-28T01:50:16;102313.02;;;-0.59;70.08
24336;BME280;33098;52.400;16.880;2023-02-28T01:52:45;102313.88;;;-0.61;70.05
24336;BME280;33098;52.400;16.880;2023-02-28T01:55:14;102312.48;;;-0.60;70.15
24336;BME280;33098;52.400;16.880;2023-02-28T01:57:48;102308.83;;;-0.63;70.28
24336;BME280;33098;52.400;16.880;2023-02-28T02:00:17;102311.79;;;-0.61;70.47
24336;BME280;33098;52.400;16.880;2023-02-28T02:02:49;102305.34;;;-0.63;70.45
24336;BME280;33098;52.400;16.880;2023-02-28T02:05:22;102305.88;;;-0.66;70.47
24336;BME280;33098;52.400;16.880;2023-02-28T02:07:54;102305.52;;;-0.63;70.68
24336;BME280;33098;52.400;16.880;2023-02-28T02:10:29;102305.35;;;-0.62;70.81
24336;BME280;33098;52.400;16.880;2023-02-28T02:16:00;102300.80;;;-0.56;71.05
24336;BME280;33098;52.400;16.880;2023-02-28T02:18:37;102299.93;;;-0.62;70.87
24336;BME280;33098;52.400;16.880;2023-02-28T02:21:19;102304.83;;;-0.64;70.71
24336;BME280;33098;52.400;16.880;2023-02-28T02:27:22;102305.35;;;-0.70;71.09
24336;BME280;33098;52.400;16.880;2023-02-28T02:30:16;102306.05;;;-0.71;71.16
24336;BME280;33098;52.400;16.880;2023-02-28T02:35:54;102303.63;;;-0.87;71.15
24336;BME280;33098;52.400;16.880;2023-02-28T02:41:14;102307.47;;;-0.84;71.36
24336;BME280;33098;52.400;16.880;2023-02-28T02:43:46;102306.95;;;-0.86;71.42
24336;BME280;33098;52.400;16.880;2023-02-28T02:46:28;102306.25;;;-0.88;71.42
24336;BME280;33098;52.400;16.880;2023-02-28T02:49:00;102308.70;;;-0.88;71.51
24336;BME280;33098;52.400;16.880;2023-02-28T02:51:32;102304.69;;;-0.88;71.63
24336;BME280;33098;52.400;16.880;2023-02-28T02:54:05;102301.38;;;-0.91;71.60
24336;BME280;33098;52.400;16.880;2023-02-28T02:56:39;102298.23;;;-0.90;71.74
24336;BME280;33098;52.400;16.880;2023-02-28T02:59:14;102299.63;;;-0.85;71.84
24336;BME280;33098;52.400;16.880;2023-02-28T03:01:50;102300.15;;;-0.89;71.92
24336;BME280;33098;52.400;16.880;2023-02-28T03:04:22;102301.90;;;-0.91;71.86
24336;BME280;33098;52.400;16.880;2023-02-28T03:06:51;102298.58;;;-1.00;71.75
24336;BME280;33098;52.400;16.880;2023-02-28T03:09:22;102294.94;;;-1.10;71.82
24336;BME280;33098;52.400;16.880;2023-02-28T03:11:54;102294.06;;;-1.08;72.08
24336;BME280;33098;52.400;16.880;2023-02-28T03:22:29;102306.27;;;-1.12;72.17
24336;BME280;33098;52.400;16.880;2023-02-28T03:25:07;102303.30;;;-1.09;72.38
24336;BME280;33098;52.400;16.880;2023-02-28T03:27:41;102302.59;;;-1.04;72.54
24336;BME280;33098;52.400;16.880;2023-02-28T03:32:58;102305.73;;;-0.96;72.42
24336;BME280;33098;52.400;16.880;2023-02-28T03:35:34;102306.77;;;-1.01;72.49
24336;BME280;33098;52.400;16.880;2023-02-28T03:38:11;102304.53;;;-1.09;72.29
24336;BME280;33098;52.400;16.880;2023-02-28T03:40:46;102306.27;;;-1.12;72.55
24336;BME280;33098;52.400;16.880;2023-02-28T03:43:22;102304.52;;;-1.07;72.60
24336;BME280;33098;52.400;16.880;2023-02-28T03:46:07;102309.22;;;-0.99;72.67
24336;BME280;33098;52.400;16.880;2023-02-28T03:48:45;102304.34;;;-1.04;72.63
24336;BME280;33098;52.400;16.880;2023-02-28T03:51:21;102308.36;;;-1.10;72.64
24336;BME280;33098;52.400;16.880;2023-02-28T03:53:54;102308.17;;;-1.11;72.74
24336;BME280;33098;52.400;16.880;2023-02-28T03:56:38;102308.69;;;-1.09;72.72
24336;BME280;33098;52.400;16.880;2023-02-28T03:59:37;102314.27;;;-1.05;72.80
24336;BME280;33098;52.400;16.880;2023-02-28T04:02:07;102312.53;;;-0.96;72.84
24336;BME280;33098;52.400;16.880;2023-02-28T04:04:36;102306.96;;;-0.94;72.90
24336;BME280;33098;52.400;16.880;2023-02-28T04:07:08;102310.96;;;-0.90;72.92
24336;BME280;33098;52.400;16.880;2023-02-28T04:09:36;102314.10;;;-0.89;72.78
24336;BME280;33098;52.400;16.880;2023-02-28T04:12:04;102318.63;;;-0.97;72.55
24336;BME280;33098;52.400;16.880;2023-02-28T04:14:33;102319.16;;;-1.02;72.62
24336;BME280;33098;52.400;16.880;2023-02-28T04:17:02;102322.82;;;-1.05;72.66
24336;BME280;33098;52.400;16.880;2023-02-28T04:19:33;102325.78;;;-1.11;72.57
24336;BME280;33098;52.400;16.880;2023-02-28T04:22:08;102329.63;;;-1.10;72.74
24336;BME280;33098;52.400;16.880;2023-02-28T04:24:36;102330.49;;;-1.13;72.73
24336;BME280;33098;52.400;16.880;2023-02-28T04:27:08;102331.70;;;-1.12;72.87
24336;BME280;33098;52.400;16.880;2023-02-28T04:29:39;102331.52;;;-1.07;72.97
24336;BME280;33098;52.400;16.880;2023-02-28T04:32:11;102338.86;;;-1.05;72.86
24336;BME280;33098;52.400;16.880;2023-02-28T04:34:39;102339.89;;;-0.99;73.08
24336;BME280;33098;52.400;16.880;2023-02-28T04:37:09;102336.92;;;-0.91;73.10
24336;BME280;33098;52.400;16.880;2023-02-28T04:39:38;102341.29;;;-0.96;72.92
24336;BME280;33098;52.400;16.880;2023-02-28T04:42:06;102343.73;;;-1.00;72.93
24336;BME280;33098;52.400;16.880;2023-02-28T04:44:33;102338.51;;;-1.13;72.77
24336;BME280;33098;52.400;16.880;2023-02-28T04:47:04;102341.98;;;-1.26;72.66
24336;BME280;33098;52.400;16.880;2023-02-28T04:49:37;102344.40;;;-1.32;72.78
24336;BME280;33098;52.400;16.880;2023-02-28T04:52:08;102345.63;;;-1.34;73.08
24336;BME280;33098;52.400;16.880;2023-02-28T04:54:36;102346.30;;;-1.39;72.94
24336;BME280;33098;52.400;16.880;2023-02-28T04:57:05;102352.57;;;-1.43;73.05
24336;BME280;33098;52.400;16.880;2023-02-28T04:59:35;102351.02;;;-1.43;73.34
24336;BME280;33098;52.400;16.880;2023-02-28T05:02:02;102349.29;;;-1.38;73.43
24336;BME280;33098;52.400;16.880;2023-02-28T05:04:34;102348.07;;;-1.29;73.65
24336;BME280;33098;52.400;16.880;2023-02-28T05:07:02;102345.45;;;-1.19;73.79
24336;BME280;33098;52.400;16.880;2023-02-28T05:09:30;102347.90;;;-1.23;73.42
24336;BME280;33098;52.400;16.880;2023-02-28T05:12:00;102347.02;;;-1.26;73.47
24336;BME280;33098;52.400;16.880;2023-02-28T05:14:29;102350.86;;;-1.21;73.67
24336;BME280;33098;52.400;16.880;2023-02-28T05:16:58;102351.23;;;-1.09;73.79
24336;BME280;33098;52.400;16.880;2023-02-28T05:19:25;102359.60;;;-1.01;73.79
24336;BME280;33098;52.400;16.880;2023-02-28T05:22:01;102359.41;;;-1.03;73.56
24336;BME280;33098;52.400;16.880;2023-02-28T05:24:30;102356.80;;;-1.12;73.24
24336;BME280;33098;52.400;16.880;2023-02-28T05:26:57;102360.45;;;-1.18;73.30
24336;BME280;33098;52.400;16.880;2023-02-28T05:29:25;102358.02;;;-1.21;73.50
24336;BME280;33098;52.400;16.880;2023-02-28T05:31:52;102356.95;;;-1.29;73.26
24336;BME280;33098;52.400;16.880;2023-02-28T05:34:22;102359.38;;;-1.41;73.25
24336;BME280;33098;52.400;16.880;2023-02-28T05:36:54;102364.59;;;-1.48;73.34
24336;BME280;33098;52.400;16.880;2023-02-28T05:39:24;102368.06;;;-1.47;73.64
24336;BME280;33098;52.400;16.880;2023-02-28T05:41:52;102365.98;;;-1.36;73.96
24336;BME280;33098;52.400;16.880;2023-02-28T05:44:22;102364.80;;;-1.27;74.01
24336;BME280;33098;52.400;16.880;2023-02-28T05:46:52;102369.87;;;-1.10;74.31
24336;BME280;33098;52.400;16.880;2023-02-28T05:49:20;102373.52;;;-0.83;74.48
24336;BME280;33098;52.400;16.880;2023-02-28T05:51:47;102372.84;;;-0.72;74.26
24336;BME280;33098;52.400;16.880;2023-02-28T05:54:16;102377.19;;;-0.69;74.01
24336;BME280;33098;52.400;16.880;2023-02-28T05:56:48;102383.81;;;-0.70;73.75
24336;BME280;33098;52.400;16.880;2023-02-28T05:59:16;102384.70;;;-0.66;73.81
24336;BME280;33098;52.400;16.880;2023-02-28T06:01:48;102386.79;;;-0.70;73.59
24336;BME280;33098;52.400;16.880;2023-02-28T06:04:19;102387.48;;;-0.68;73.63
24336;BME280;33098;52.400;16.880;2023-02-28T06:06:48;102381.89;;;-0.55;73.76
24336;BME280;33098;52.400;16.880;2023-02-28T06:09:24;102383.62;;;-0.42;73.69
24336;BME280;33098;52.400;16.880;2023-02-28T06:11:52;102387.45;;;-0.34;73.64
24336;BME280;33098;52.400;16.880;2023-02-28T06:14:21;102390.06;;;-0.35;73.42
24336;BME280;33098;52.400;16.880;2023-02-28T06:16:52;102393.19;;;-0.33;73.33
24336;BME280;33098;52.400;16.880;2023-02-28T06:19:20;102393.02;;;-0.31;73.34
24336;BME280;33098;52.400;16.880;2023-02-28T06:21:49;102395.81;;;-0.29;73.33
24336;BME280;33098;52.400;16.880;2023-02-28T06:24:22;102394.92;;;-0.27;73.11
24336;BME280;33098;52.400;16.880;2023-02-28T06:26:50;102395.64;;;-0.35;72.95
24336;BME280;33098;52.400;16.880;2023-02-28T06:29:18;102395.31;;;-0.39;73.05
24336;BME280;33098;52.400;16.880;2023-02-28T06:31:46;102397.22;;;-0.36;73.05
24336;BME280;33098;52.400;16.880;2023-02-28T06:34:14;102402.63;;;-0.36;72.95
24336;BME280;33098;52.400;16.880;2023-02-28T06:36:41;102398.80;;;-0.44;72.98
24336;BME280;33098;52.400;16.880;2023-02-28T06:39:09;102399.31;;;-0.46;72.93
24336;BME280;33098;52.400;16.880;2023-02-28T06:41:37;102400.20;;;-0.50;73.02
24336;BME280;33098;52.400;16.880;2023-02-28T06:44:13;102396.54;;;-0.49;73.17
24336;BME280;33098;52.400;16.880;2023-02-28T06:46:41;102397.41;;;-0.46;73.18
24336;BME280;33098;52.400;16.880;2023-02-28T06:49:10;102397.23;;;-0.44;73.24
24336;BME280;33098;52.400;16.880;2023-02-28T06:51:41;102399.14;;;-0.41;73.42
24336;BME280;33098;52.400;16.880;2023-02-28T06:54:12;102403.49;;;-0.33;73.54
24336;BME280;33098;52.400;16.880;2023-02-28T06:56:39;102402.26;;;-0.25;73.56
24336;BME280;33098;52.400;16.880;2023-02-28T06:59:06;102402.42;;;-0.21;73.53
24336;BME280;33098;52.400;16.880;2023-02-28T07:01:33;102400.67;;;-0.17;73.64
24336;BME280;33098;52.400;16.880;2023-02-28T07:04:01;102400.98;;;-0.11;73.65
24336;BME280;33098;52.400;16.880;2023-02-28T07:06:28;102403.45;;;-0.12;73.63
24336;BME280;33098;52.400;16.880;2023-02-28T07:08:55;102403.27;;;-0.09;73.75
24336;BME280;33098;52.400;16.880;2023-02-28T07:11:24;102403.78;;;-0.07;73.67
24336;BME280;33098;52.400;16.880;2023-02-28T07:13:58;102403.41;;;-0.05;73.71
24336;BME280;33098;52.400;16.880;2023-02-28T07:16:29;102401.84;;;0.02;73.86
24336;BME280;33098;52.400;16.880;2023-02-28T07:19:00;102406.16;;;0.13;73.91
24336;BME280;33098;52.400;16.880;2023-02-28T07:21:27;102402.82;;;0.17;73.94
24336;BME280;33098;52.400;16.880;2023-02-28T07:23:55;102404.36;;;0.30;74.01
24336;BME280;33098;52.400;16.880;2023-02-28T07:26:23;102402.06;;;0.32;73.85
24336;BME280;33098;52.400;16.880;2023-02-28T07:28:53;102399.24;;;0.38;73.90
24336;BME280;33098;52.400;16.880;2023-02-28T07:31:21;102402.33;;;0.49;73.89
24336;BME280;33098;52.400;16.880;2023-02-28T07:33:51;102411.02;;;0.61;73.95
24336;BME280;33098;52.400;16.880;2023-02-28T07:36:22;102414.48;;;0.67;73.80
24336;BME280;33098;52.400;16.880;2023-02-28T07:38:48;102415.11;;;0.77;73.87
24336;BME280;33098;52.400;16.880;2023-02-28T07:41:20;102418.56;;;0.85;73.78
24336;BME280;33098;52.400;16.880;2023-02-28T07:43:48;102416.61;;;0.90;73.60
24336;BME280;33098;52.400;16.880;2023-02-28T07:46:17;102418.63;;;1.00;73.50
24336;BME280;33098;52.400;16.880;2023-02-28T07:48:45;102418.40;;;1.08;73.59
24336;BME280;33098;52.400;16.880;2023-02-28T07:51:16;102419.60;;;1.13;73.41
24336;BME280;33098;52.400;16.880;2023-02-28T07:53:44;102419.20;;;1.19;73.41
24336;BME280;33098;52.400;16.880;2023-02-28T07:56:24;102417.35;;;1.31;73.26
24336;BME280;33098;52.400;16.880;2023-02-28T07:58:51;102419.58;;;1.37;72.96
24336;BME280;33098;52.400;16.880;2023-02-28T08:01:21;102424.11;;;1.37;72.83
24336;BME280;33098;52.400;16.880;2023-02-28T08:03:50;102424.30;;;1.37;72.71
24336;BME280;33098;52.400;16.880;2023-02-28T08:06:25;102422.92;;;1.34;72.73
24336;BME280;33098;52.400;16.880;2023-02-28T08:08:55;102427.62;;;1.37;72.67
24336;BME280;33098;52.400;16.880;2023-02-28T08:11:23;102426.52;;;1.42;72.62
24336;BME280;33098;52.400;16.880;2023-02-28T08:13:50;102425.59;;;1.50;72.78
24336;BME280;33098;52.400;16.880;2023-02-28T08:16:17;102422.21;;;1.57;72.74
24336;BME280;33098;52.400;16.880;2023-02-28T08:18:50;102426.27;;;1.52;72.36
24336;BME280;33098;52.400;16.880;2023-02-28T08:21:18;102421.33;;;1.55;72.44
24336;BME280;33098;52.400;16.880;2023-02-28T08:23:51;102425.81;;;1.63;72.60
24336;BME280;33098;52.400;16.880;2023-02-28T08:26:21;102421.23;;;1.68;72.49
24336;BME280;33098;52.400;16.880;2023-02-28T08:28:48;102422.05;;;1.72;72.47
24336;BME280;33098;52.400;16.880;2023-02-28T08:31:16;102427.98;;;1.74;72.29
24336;BME280;33098;52.400;16.880;2023-02-28T08:33:44;102424.38;;;1.85;72.34
24336;BME280;33098;52.400;16.880;2023-02-28T08:36:13;102423.73;;;1.97;72.32
24336;BME280;33098;52.400;16.880;2023-02-28T08:38:43;102425.27;;;2.01;72.13
24336;BME280;33098;52.400;16.880;2023-02-28T08:41:14;102427.02;;;2.00;71.92
24336;BME280;33098;52.400;16.880;2023-02-28T08:43:42;102421.66;;;1.93;71.70
24336;BME280;33098;52.400;16.880;2023-02-28T08:46:12;102426.05;;;1.92;71.60
24336;BME280;33098;52.400;16.880;2023-02-28T08:48:42;102423.02;;;1.97;71.64
24336;BME280;33098;52.400;16.880;2023-02-28T08:51:16;102423.30;;;2.02;71.71
24336;BME280;33098;52.400;16.880;2023-02-28T08:53:47;102422.10;;;2.01;71.62
24336;BME280;33098;52.400;16.880;2023-02-28T08:56:19;102424.46;;;2.09;71.56
24336;BME280;33098;52.400;16.880;2023-02-28T08:58:47;102424.70;;;2.19;71.48
24336;BME280;33098;52.400;16.880;2023-02-28T09:01:19;102426.67;;;2.31;71.54
24336;BME280;33098;52.400;16.880;2023-02-28T09:03:48;102419.57;;;2.38;71.32
24336;BME280;33098;52.400;16.880;2023-02-28T09:06:17;102421.14;;;2.39;71.15
24336;BME280;33098;52.400;16.880;2023-02-28T09:08:48;102417.16;;;2.48;71.29
24336;BME280;33098;52.400;16.880;2023-02-28T09:11:16;102411.38;;;2.47;70.85
24336;BME280;33098;52.400;16.880;2023-02-28T09:13:44;102409.97;;;2.48;70.98
24336;BME280;33098;52.400;16.880;2023-02-28T09:16:15;102411.64;;;2.54;70.77
24336;BME280;33098;52.400;16.880;2023-02-28T09:18:45;102415.04;;;2.63;70.85
24336;BME280;33098;52.400;16.880;2023-02-28T09:21:15;102413.20;;;2.68;70.38
24336;BME280;33098;52.400;16.880;2023-02-28T09:23:45;102412.74;;;2.76;70.42
24336;BME280;33098;52.400;16.880;2023-02-28T09:26:24;102415.61;;;2.85;70.43
24336;BME280;33098;52.400;16.880;2023-02-28T09:28:52;102411.98;;;2.93;70.26
24336;BME280;33098;52.400;16.880;2023-02-28T09:31:21;102412.49;;;3.04;70.10
24336;BME280;33098;52.400;16.880;2023-02-28T09:33:53;102411.84;;;3.14;70.13
24336;BME280;33098;52.400;16.880;2023-02-28T09:36:21;102412.93;;;3.21;69.93
24336;BME280;33098;52.400;16.880;2023-02-28T09:38:49;102413.00;;;3.28;69.61
24336;BME280;33098;52.400;16.880;2023-02-28T09:41:21;102416.60;;;3.33;69.43
24336;BME280;33098;52.400;16.880;2023-02-28T09:43:59;102420.52;;;3.40;69.19
24336;BME280;33098;52.400;16.880;2023-02-28T09:46:47;102423.08;;;3.45;68.84
24336;BME280;33098;52.400;16.880;2023-02-28T09:49:24;102427.92;;;3.38;68.18
24336;BME280;33098;52.400;16.880;2023-02-28T09:52:02;102430.72;;;3.39;68.29
24336;BME280;33098;52.400;16.880;2023-02-28T09:54:32;102429.78;;;3.43;68.12
24336;BME280;33098;52.400;16.880;2023-02-28T09:59:54;102432.89;;;3.56;67.90
24336;BME280;33098;52.400;16.880;2023-02-28T10:05:11;102435.33;;;3.68;67.52
24336;BME280;33098;52.400;16.880;2023-02-28T10:08:10;102432.24;;;3.73;67.40
24336;BME280;33098;52.400;16.880;2023-02-28T10:10:47;102433.50;;;3.81;67.32
24336;BME280;33098;52.400;16.880;2023-02-28T10:16:01;102434.39;;;3.99;67.09
24336;BME280;33098;52.400;16.880;2023-02-28T10:18:39;102431.88;;;4.02;67.10
24336;BME280;33098;52.400;16.880;2023-02-28T10:21:17;102428.52;;;4.03;66.75
24336;BME280;33098;52.400;16.880;2023-02-28T10:23:59;102424.96;;;3.96;66.11
24336;BME280;33098;52.400;16.880;2023-02-28T10:26:37;102423.36;;;3.97;66.30
24336;BME280;33098;52.400;16.880;2023-02-28T10:29:04;102425.15;;;4.05;66.43
24336;BME280;33098;52.400;16.880;2023-02-28T10:31:33;102427.53;;;4.18;66.43
24336;BME280;33098;52.400;16.880;2023-02-28T10:34:00;102426.23;;;4.30;66.32
24336;BME280;33098;52.400;16.880;2023-02-28T10:36:28;102419.85;;;4.40;65.56
24336;BME280;33098;52.400;16.880;2023-02-28T10:38:58;102416.88;;;4.40;64.98
24336;BME280;33098;52.400;16.880;2023-02-28T10:41:31;102414.30;;;4.46;65.16
24336;BME280;33098;52.400;16.880;2023-02-28T10:44:17;102412.16;;;4.63;65.26
24336;BME280;33098;52.400;16.880;2023-02-28T10:46:46;102407.23;;;4.79;65.31
24336;BME280;33098;52.400;16.880;2023-02-28T10:49:27;102402.92;;;4.83;64.47
24336;BME280;33098;52.400;16.880;2023-02-28T10:51:59;102399.37;;;4.92;64.56
24336;BME280;33098;52.400;16.880;2023-02-28T10:54:31;102398.73;;;5.04;64.40
24336;BME280;33098;52.400;16.880;2023-02-28T10:59:33;102391.90;;;5.32;63.91
24336;BME280;33098;52.400;16.880;2023-02-28T11:02:00;102397.39;;;5.44;63.56
24336;BME280;33098;52.400;16.880;2023-02-28T11:07:04;102386.98;;;5.71;63.32
24336;BME280;33098;52.400;16.880;2023-02-28T11:09:40;102383.20;;;5.75;63.15
24336;BME280;33098;52.400;16.880;2023-02-28T11:12:19;102382.26;;;5.83;62.38
24336;BME280;33098;52.400;16.880;2023-02-28T11:14:56;102379.89;;;5.93;62.25
24336;BME280;33098;52.400;16.880;2023-02-28T11:17:30;102382.13;;;5.94;61.73
24336;BME280;33098;52.400;16.880;2023-02-28T11:20:18;102382.01;;;5.93;61.19
24336;BME280;33098;52.400;16.880;2023-02-28T11:22:46;102376.58;;;5.98;61.37
24336;BME280;33098;52.400;16.880;2023-02-28T11:25:27;102381.48;;;6.12;61.63
24336;BME280;33098;52.400;16.880;2023-02-28T11:28:05;102380.66;;;6.28;61.43
24336;BME280;33098;52.400;16.880;2023-02-28T11:30:38;102382.47;;;6.44;61.17
24336;BME280;33098;52.400;16.880;2023-02-28T11:33:25;102378.16;;;6.53;61.16
24336;BME280;33098;52.400;16.880;2023-02-28T11:36:01;102374.23;;;6.61;61.02
24336;BME280;33098;52.400;16.880;2023-02-28T11:38:34;102367.86;;;6.66;60.84
24336;BME280;33098;52.400;16.880;2023-02-28T11:41:19;102363.85;;;6.76;61.03
24336;BME280;33098;52.400;16.880;2023-02-28T11:57:33;102350.00;;;7.48;59.98
24336;BME280;33098;52.400;16.880;2023-02-28T12:11:55;102335.73;;;8.37;58.15
24336;BME280;33098;52.400;16.880;2023-02-28T12:17:38;102333.31;;;8.55;57.82
24336;BME280;33098;52.400;16.880;2023-02-28T12:20:41;102331.30;;;8.61;57.09
24336;BME280;33098;52.400;16.880;2023-02-28T12:23:25;102328.48;;;8.65;57.29
24336;BME280;33098;52.400;16.880;2023-02-28T12:26:02;102322.09;;;8.74;56.53
24336;BME280;33098;52.400;16.880;2023-02-28T12:28:40;102324.14;;;8.98;56.75
24336;BME280;33098;52.400;16.880;2023-02-28T12:33:51;102320.67;;;9.17;54.75
24336;BME280;33098;52.400;16.880;2023-02-28T12:36:22;102314.08;;;9.10;54.87
24336;BME280;33098;52.400;16.880;2023-02-28T12:39:02;102311.77;;;9.31;55.31
24336;BME280;33098;52.400;16.880;2023-02-28T12:41:41;102313.46;;;9.57;55.02
24336;BME280;33098;52.400;16.880;2023-02-28T12:44:13;102311.59;;;9.51;54.33
24336;BME280;33098;52.400;16.880;2023-02-28T12:46:51;102307.44;;;9.45;53.86
24336;BME280;33098;52.400;16.880;2023-02-28T12:49:25;102300.48;;;9.42;54.02
24336;BME280;33098;52.400;16.880;2023-02-28T12:51:59;102304.64;;;9.52;54.04
24336;BME280;33098;52.400;16.880;2023-02-28T12:54:55;102300.60;;;9.75;54.44
24336;BME280;33098;52.400;16.880;2023-02-28T12:59:56;102299.59;;;10.01;53.80
24336;BME280;33098;52.400;16.880;2023-02-28T13:07:47;102299.88;;;10.52;52.68
24336;BME280;33098;52.400;16.880;2023-02-28T13:10:20;102296.07;;;10.79;52.84
24336;BME280;33098;52.400;16.880;2023-02-28T13:12:50;102288.29;;;10.88;52.36
24336;BME280;33098;52.400;16.880;2023-02-28T13:15:19;102284.17;;;11.07;52.42
24336;BME280;33098;52.400;16.880;2023-02-28T13:17:54;102283.59;;;11.11;51.58
24336;BME280;33098;52.400;16.880;2023-02-28T13:20:36;102279.00;;;11.00;50.99
24336;BME280;33098;52.400;16.880;2023-02-28T13:23:55;102281.45;;;11.01;51.82
24336;BME280;33098;52.400;16.880;2023-02-28T13:34:36;102271.69;;;10.58;50.43
24336;BME280;33098;52.400;16.880;2023-02-28T13:39:57;102264.67;;;10.27;49.58
24336;BME280;33098;52.400;16.880;2023-02-28T13:47:58;102256.23;;;9.64;49.27
24336;BME280;33098;52.400;16.880;2023-02-28T13:50:29;102250.30;;;9.39;48.96
24336;BME280;33098;52.400;16.880;2023-02-28T13:55:57;102248.75;;;9.01;49.22
24336;BME280;33098;52.400;16.880;2023-02-28T13:58:38;102250.37;;;8.88;49.39
24336;BME280;33098;52.400;16.880;2023-02-28T14:04:48;102239.12;;;8.65;49.37
24336;BME280;33098;52.400;16.880;2023-02-28T14:07:27;102239.60;;;8.53;49.07
24336;BME280;33098;52.400;16.880;2023-02-28T14:10:01;102236.36;;;8.23;48.78
24336;BME280;33098;52.400;16.880;2023-02-28T14:18:03;102237.57;;;7.83;49.38
24336;BME280;33098;52.400;16.880;2023-02-28T14:20:35;102234.72;;;7.84;49.67
24336;BME280;33098;52.400;16.880;2023-02-28T14:23:14;102230.25;;;7.80;49.67
24336;BME280;33098;52.400;16.880;2023-02-28T14:26:17;102228.54;;;7.79;49.75
24336;BME280;33098;52.400;16.880;2023-02-28T14:29:18;102227.30;;;7.69;49.64
24336;BME280;33098;52.400;16.880;2023-02-28T14:32:06;102226.73;;;7.61;49.80
24336;BME280;33098;52.400;16.880;2023-02-28T14:35:05;102230.82;;;7.46;49.82
24336;BME280;33098;52.400;16.880;2023-02-28T14:37:39;102228.23;;;7.30;49.89
24336;BME280;33098;52.400;16.880;2023-02-28T14:40:30;102223.65;;;7.29;50.29
24336;BME280;33098;52.400;16.880;2023-02-28T14:43:02;102218.23;;;7.28;50.13
24336;BME280;33098;52.400;16.880;2023-02-28T14:45:32;102219.67;;;7.17;50.14
24336;BME280;33098;52.400;16.880;2023-02-28T14:48:02;102218.69;;;7.05;50.15
24336;BME280;33098;52.400;16.880;2023-02-28T14:50:34;102218.52;;;6.94;50.35
24336;BME280;33098;52.400;16.880;2023-02-28T14:53:03;102218.45;;;6.97;50.32
24336;BME280;33098;52.400;16.880;2023-02-28T14:55:37;102219.58;;;6.80;49.84
24336;BME280;33098;52.400;16.880;2023-02-28T14:58:34;102223.90;;;6.61;49.61